createdAt,value
2023-01-25T00:00:02.243Z,94.93
2023-01-25T00:02:32.193Z,94.88
2023-01-25T00:04:59.390Z,94.80
2023-01-25T00:07:26.592Z,94.64
2023-01-25T00:09:53.781Z,94.68
2023-01-25T00:12:20.945Z,94.76
2023-01-25T00:14:48.221Z,94.72
2023-01-25T00:17:15.430Z,94.72
2023-01-25T00:19:42.699Z,94.67
2023-01-25T00:22:09.898Z,94.68
2023-01-25T00:24:37.157Z,94.70
2023-01-25T00:27:04.357Z,94.70
2023-01-25T00:29:32.216Z,94.73
2023-01-25T00:31:59.441Z,94.74
2023-01-25T00:34:26.720Z,94.75
2023-01-25T00:36:58.594Z,94.75
2023-01-25T00:39:27.016Z,94.76
2023-01-25T00:41:54.538Z,94.72
2023-01-25T00:44:22.474Z,94.71
2023-01-25T00:46:49.697Z,94.70
2023-01-25T00:49:25.506Z,94.77
2023-01-25T00:51:54.333Z,94.75
2023-01-25T00:54:23.015Z,94.72
2023-01-25T00:56:53.219Z,94.64
2023-01-25T00:59:20.538Z,94.58
2023-01-25T01:01:47.808Z,94.61
2023-01-25T01:04:15.070Z,94.60
2023-01-25T01:06:43.165Z,94.59
2023-01-25T01:09:18.429Z,94.63
2023-01-25T01:11:45.762Z,94.60
2023-01-25T01:14:13.259Z,94.61
2023-01-25T01:16:41.687Z,94.63
2023-01-25T01:19:10.984Z,94.60
2023-01-25T01:21:38.669Z,94.64
2023-01-25T01:24:06.361Z,94.67
2023-01-25T01:26:33.564Z,94.68
2023-01-25T01:29:00.704Z,94.67
2023-01-25T01:31:28.739Z,94.77
2023-01-25T01:34:06.160Z,94.76
2023-01-25T01:36:33.502Z,94.79
2023-01-25T01:39:02.175Z,94.75
2023-01-25T01:41:29.341Z,94.78
2023-01-25T01:43:57.416Z,94.79
2023-01-25T01:46:37.543Z,94.83
2023-01-25T01:49:23.914Z,94.81
2023-01-25T01:51:58.932Z,94.79
2023-01-25T01:54:37.589Z,94.81
2023-01-25T01:57:25.792Z,94.83
2023-01-25T01:59:59.550Z,94.84
2023-01-25T02:02:27.513Z,94.90
2023-01-25T02:05:01.234Z,94.94
2023-01-25T02:07:37.013Z,94.94
2023-01-25T02:10:11.362Z,94.95
2023-01-25T02:12:42.523Z,94.94
2023-01-25T02:15:10.695Z,94.92
2023-01-25T02:17:39.869Z,94.93
2023-01-25T02:20:30.406Z,94.99
2023-01-25T02:23:37.507Z,95.01
2023-01-25T02:26:06.096Z,95.01
2023-01-25T02:28:46.728Z,95.04
2023-01-25T02:31:14.892Z,95.05
2023-01-25T02:33:42.220Z,95.04
2023-01-25T02:36:11.152Z,95.05
2023-01-25T02:38:42.555Z,95.04
2023-01-25T02:41:18.255Z,95.03
2023-01-25T02:43:45.424Z,95.02
2023-01-25T02:46:28.084Z,94.98
2023-01-25T02:48:56.024Z,95.02
2023-01-25T02:51:25.682Z,95.00
2023-01-25T02:53:53.122Z,95.00
2023-01-25T02:56:21.136Z,94.98
2023-01-25T02:58:49.096Z,94.98
2023-01-25T03:01:17.583Z,94.97
2023-01-25T03:03:44.959Z,94.99
2023-01-25T03:06:13.788Z,94.97
2023-01-25T03:08:43.296Z,94.94
2023-01-25T03:11:10.858Z,94.97
2023-01-25T03:13:38.677Z,94.93
2023-01-25T03:16:09.843Z,94.92
2023-01-25T03:18:39.458Z,94.96
2023-01-25T03:21:07.027Z,94.91
2023-01-25T03:23:35.074Z,94.91
2023-01-25T03:26:13.904Z,94.89
2023-01-25T03:28:56.138Z,94.86
2023-01-25T03:31:24.798Z,94.86
2023-01-25T03:33:52.190Z,94.85
2023-01-25T03:36:22.509Z,94.81
2023-01-25T03:38:49.773Z,94.83
2023-01-25T03:41:18.233Z,94.84
2023-01-25T03:43:46.765Z,94.81
2023-01-25T03:46:17.332Z,94.79
2023-01-25T03:48:44.565Z,94.84
2023-01-25T03:51:11.810Z,94.86
2023-01-25T03:53:39.057Z,94.90
2023-01-25T03:56:19.798Z,94.97
2023-01-25T03:58:56.410Z,94.99
2023-01-25T04:01:23.775Z,94.96
2023-01-25T04:03:51.112Z,94.96
2023-01-25T04:06:18.371Z,94.94
2023-01-25T04:08:45.600Z,94.86
2023-01-25T04:11:14.285Z,94.85
2023-01-25T04:13:44.478Z,94.84
2023-01-25T04:16:14.412Z,94.82
2023-01-25T04:18:58.091Z,94.79
2023-01-25T04:21:26.920Z,94.80
2023-01-25T04:23:54.315Z,94.77
2023-01-25T04:26:21.593Z,94.75
2023-01-25T04:28:55.011Z,94.72
2023-01-25T04:31:22.705Z,94.73
2023-01-25T04:33:50.728Z,94.68
2023-01-25T04:36:20.215Z,94.67
2023-01-25T04:38:48.735Z,94.64
2023-01-25T04:41:15.966Z,94.58
2023-01-25T04:43:44.375Z,94.62
2023-01-25T04:46:11.963Z,94.56
2023-01-25T04:48:39.815Z,94.57
2023-01-25T04:51:09.520Z,94.59
2023-01-25T04:53:37.033Z,94.54
2023-01-25T04:56:06.856Z,94.54
2023-01-25T04:58:42.616Z,94.52
2023-01-25T05:01:10.658Z,94.48
2023-01-25T05:03:38.215Z,94.48
2023-01-25T05:06:10.343Z,94.48
2023-01-25T05:08:37.549Z,94.44
2023-01-25T05:11:05.627Z,94.44
2023-01-25T05:13:54.701Z,94.44
2023-01-25T05:16:30.013Z,94.41
2023-01-25T05:18:58.793Z,94.40
2023-01-25T05:21:59.087Z,94.41
2023-01-25T05:25:39.867Z,94.41
2023-01-25T05:28:08.902Z,94.41
2023-01-25T05:30:56.248Z,94.43
2023-01-25T05:33:27.679Z,94.40
2023-01-25T05:35:56.214Z,94.41
2023-01-25T05:38:25.230Z,94.40
2023-01-25T05:40:58.863Z,94.40
2023-01-25T05:43:26.499Z,94.40
2023-01-25T05:45:54.176Z,94.41
2023-01-25T05:48:21.606Z,94.40
2023-01-25T05:50:49.095Z,94.40
2023-01-25T05:53:27.095Z,94.36
2023-01-25T05:55:55.150Z,94.35
2023-01-25T05:58:23.063Z,94.31
2023-01-25T06:00:50.296Z,94.35
2023-01-25T06:03:32.485Z,94.36
2023-01-25T06:06:02.994Z,94.38
2023-01-25T06:08:32.139Z,94.40
2023-01-25T06:10:59.512Z,94.36
2023-01-25T06:13:28.994Z,94.36
2023-01-25T06:15:57.694Z,94.38
2023-01-25T06:18:44.267Z,94.36
2023-01-25T06:21:30.570Z,94.36
2023-01-25T06:23:57.925Z,94.34
2023-01-25T06:26:25.225Z,94.33
2023-01-25T06:28:53.473Z,94.33
2023-01-25T06:31:21.042Z,94.34
2023-01-25T06:33:50.981Z,94.37
2023-01-25T06:36:22.429Z,94.34
2023-01-25T06:38:52.423Z,94.38
2023-01-25T06:41:20.198Z,94.33
2023-01-25T06:43:50.603Z,94.35
2023-01-25T06:46:19.503Z,94.38
2023-01-25T06:48:46.929Z,94.36
2023-01-25T06:51:16.041Z,94.33
2023-01-25T06:53:49.068Z,94.31
2023-01-25T06:56:22.690Z,94.27
2023-01-25T06:58:50.650Z,94.26
2023-01-25T07:01:30.355Z,94.22
2023-01-25T07:03:59.837Z,94.17
2023-01-25T07:06:34.149Z,93.87
2023-01-25T07:09:11.148Z,93.84
2023-01-25T07:11:39.015Z,93.81
2023-01-25T07:14:06.866Z,93.65
2023-01-25T07:16:37.225Z,93.61
2023-01-25T07:19:06.876Z,93.50
2023-01-25T07:21:34.452Z,93.41
2023-01-25T07:24:04.054Z,93.40
2023-01-25T07:26:32.327Z,93.45
2023-01-25T07:29:00.043Z,93.34
2023-01-25T07:31:28.755Z,93.23
2023-01-25T07:33:58.851Z,93.16
2023-01-25T07:36:26.638Z,93.14
2023-01-25T07:38:55.793Z,93.00
2023-01-25T07:41:25.122Z,93.01
2023-01-25T07:43:53.279Z,92.95
2023-01-25T07:46:39.998Z,92.57
2023-01-25T07:49:07.408Z,92.68
2023-01-25T07:51:34.879Z,92.64
2023-01-25T07:54:05.057Z,92.65
2023-01-25T07:56:38.447Z,92.29
2023-01-25T07:59:08.356Z,92.21
2023-01-25T08:01:36.961Z,92.33
2023-01-25T08:04:05.113Z,92.36
2023-01-25T08:06:38.862Z,92.51
2023-01-25T08:09:14.074Z,92.51
2023-01-25T08:11:42.517Z,92.55
2023-01-25T08:14:11.320Z,92.48
2023-01-25T08:16:38.786Z,92.52
2023-01-25T08:19:06.412Z,92.51
2023-01-25T08:21:35.257Z,92.49
2023-01-25T08:24:07.034Z,92.44
2023-01-25T08:26:36.541Z,92.42
2023-01-25T08:29:05.626Z,92.40
2023-01-25T08:31:36.108Z,92.22
2023-01-25T08:34:04.578Z,92.14
2023-01-25T08:36:31.905Z,92.21
2023-01-25T08:39:03.848Z,92.14
2023-01-25T08:41:33.815Z,92.14
2023-01-25T08:44:01.885Z,92.25
2023-01-25T08:46:33.404Z,92.21
2023-01-25T08:49:02.649Z,92.05
2023-01-25T08:51:32.631Z,92.07
2023-01-25T08:54:08.589Z,92.03
2023-01-25T08:56:42.629Z,91.99
2023-01-25T08:59:14.080Z,91.98
2023-01-25T09:01:41.867Z,91.91
2023-01-25T09:04:09.404Z,91.92
2023-01-25T09:06:36.993Z,91.86
2023-01-25T09:09:04.839Z,91.90
2023-01-25T09:11:36.940Z,91.86
2023-01-25T09:14:05.388Z,91.88
2023-01-25T09:16:32.740Z,91.96
2023-01-25T09:19:03.738Z,91.95
2023-01-25T09:21:32.622Z,92.01
2023-01-25T09:24:06.611Z,91.85
2023-01-25T09:26:43.030Z,91.95
2023-01-25T09:29:13.347Z,92.01
2023-01-25T09:31:43.535Z,92.03
2023-01-25T09:34:29.343Z,92.27
2023-01-25T09:36:56.648Z,92.06
2023-01-25T09:39:24.145Z,92.03
2023-01-25T09:42:15.077Z,92.01
2023-01-25T09:45:03.735Z,92.07
2023-01-25T09:48:05.078Z,92.05
2023-01-25T09:50:34.010Z,92.01
2023-01-25T09:53:36.954Z,92.00
2023-01-25T09:56:26.828Z,92.18
2023-01-25T09:59:07.704Z,92.25
2023-01-25T10:01:54.892Z,92.51
2023-01-25T10:04:28.699Z,92.32
2023-01-25T10:07:22.560Z,92.37
2023-01-25T10:10:13.938Z,92.46
2023-01-25T10:12:41.321Z,92.09
2023-01-25T10:15:23.600Z,92.10
2023-01-25T10:18:21.920Z,92.12
2023-01-25T10:20:49.175Z,92.19
2023-01-25T10:23:51.803Z,91.90
2023-01-25T10:26:28.036Z,92.07
2023-01-25T10:29:13.011Z,92.04
2023-01-25T10:31:49.043Z,92.23
2023-01-25T10:34:26.772Z,92.08
2023-01-25T10:36:58.122Z,92.00
2023-01-25T10:39:25.619Z,92.00
2023-01-25T10:42:12.401Z,91.78
2023-01-25T10:44:39.791Z,91.71
2023-01-25T10:47:20.426Z,91.69
2023-01-25T10:49:58.908Z,91.73
2023-01-25T10:52:28.689Z,91.57
2023-01-25T10:55:26.137Z,91.21
2023-01-25T10:57:59.737Z,91.46
2023-01-25T11:00:38.497Z,91.36
2023-01-25T11:03:19.302Z,91.38
2023-01-25T11:05:56.359Z,91.23
2023-01-25T11:08:30.801Z,91.01
2023-01-25T11:10:59.579Z,90.91
2023-01-25T11:13:29.995Z,91.01
2023-01-25T11:16:01.556Z,91.05
2023-01-25T11:18:33.859Z,91.13
2023-01-25T11:21:29.555Z,90.86
2023-01-25T11:24:11.773Z,91.13
2023-01-25T11:26:41.274Z,91.24
2023-01-25T11:29:16.001Z,91.34
2023-01-25T11:31:49.228Z,91.21
2023-01-25T11:34:21.178Z,91.25
2023-01-25T11:37:24.974Z,91.26
2023-01-25T11:40:33.552Z,91.02
2023-01-25T11:43:25.044Z,91.09
2023-01-25T11:46:21.023Z,91.20
2023-01-25T11:49:28.975Z,90.98
2023-01-25T11:52:57.923Z,90.90
2023-01-25T11:55:52.068Z,91.11
2023-01-25T11:58:55.800Z,90.90
2023-01-25T12:01:37.466Z,90.85
2023-01-25T12:04:41.591Z,90.86
2023-01-25T12:07:25.925Z,90.87
2023-01-25T12:10:20.610Z,90.96
2023-01-25T12:12:56.506Z,90.99
2023-01-25T12:16:20.208Z,90.95
2023-01-25T12:19:11.081Z,90.98
2023-01-25T12:22:02.875Z,91.11
2023-01-25T12:25:03.832Z,91.17
2023-01-25T12:28:10.540Z,91.01
2023-01-25T12:31:24.295Z,90.75
2023-01-25T12:34:03.820Z,90.99
2023-01-25T12:36:43.504Z,91.09
2023-01-25T12:39:40.141Z,91.11
2023-01-25T12:42:21.184Z,91.14
2023-01-25T12:45:20.991Z,91.17
2023-01-25T12:47:53.954Z,91.33
2023-01-25T12:50:46.945Z,91.33
2023-01-25T12:53:24.422Z,91.24
2023-01-25T12:55:54.384Z,91.25
2023-01-25T12:58:38.580Z,91.29
2023-01-25T13:01:32.114Z,91.28
2023-01-25T13:04:35.617Z,91.22
2023-01-25T13:07:28.108Z,91.04
2023-01-25T13:10:27.160Z,91.32
2023-01-25T13:13:04.132Z,91.32
2023-01-25T13:15:50.047Z,91.31
2023-01-25T13:18:30.118Z,91.47
2023-01-25T13:21:08.333Z,91.47
2023-01-25T13:23:35.693Z,91.53
2023-01-25T13:26:21.165Z,91.56
2023-01-25T13:28:52.103Z,91.54
2023-01-25T13:31:51.555Z,91.62
2023-01-25T13:34:35.647Z,91.73
2023-01-25T13:37:17.913Z,91.77
2023-01-25T13:39:51.317Z,91.93
2023-01-25T13:42:24.125Z,92.10
2023-01-25T13:45:04.794Z,92.30
2023-01-25T13:47:40.417Z,92.17
2023-01-25T13:50:29.323Z,92.21
2023-01-25T13:53:06.135Z,92.21
2023-01-25T13:55:43.683Z,92.26
2023-01-25T13:58:36.232Z,92.47
2023-01-25T14:01:13.377Z,92.44
2023-01-25T14:04:11.875Z,92.54
2023-01-25T14:06:41.121Z,92.77
2023-01-25T14:09:20.785Z,92.67
2023-01-25T14:12:03.444Z,92.74
2023-01-25T14:14:34.130Z,92.84
2023-01-25T14:17:16.888Z,92.83
2023-01-25T14:19:54.498Z,93.01
2023-01-25T14:22:29.155Z,93.05
2023-01-25T14:25:17.559Z,93.08
2023-01-25T14:27:46.948Z,93.21
2023-01-25T14:30:21.983Z,93.17
2023-01-25T14:32:52.903Z,93.25
2023-01-25T14:35:54.630Z,93.25
2023-01-25T14:38:34.855Z,93.22
2023-01-25T14:41:08.297Z,93.28
2023-01-25T14:43:37.917Z,93.24
2023-01-25T14:46:23.458Z,93.08
2023-01-25T14:48:52.903Z,93.20
2023-01-25T14:51:30.707Z,93.23
2023-01-25T14:54:12.912Z,93.33
2023-01-25T14:56:45.382Z,93.29
2023-01-25T14:59:43.298Z,93.18
2023-01-25T15:02:39.420Z,93.08
2023-01-25T15:05:21.125Z,93.08
2023-01-25T15:07:50.940Z,92.99
2023-01-25T15:10:28.384Z,92.86
2023-01-25T15:13:15.252Z,92.81
2023-01-25T15:16:02.158Z,92.78
2023-01-25T15:18:51.254Z,92.73
2023-01-25T15:21:26.971Z,92.61
2023-01-25T15:23:57.012Z,92.58
2023-01-25T15:26:30.851Z,92.53
2023-01-25T15:29:02.048Z,92.28
2023-01-25T15:31:36.550Z,92.10
2023-01-25T15:34:04.963Z,91.98
2023-01-25T15:36:33.699Z,92.07
2023-01-25T15:39:01.549Z,91.85
2023-01-25T15:41:28.919Z,91.63
2023-01-25T15:43:56.346Z,91.28
2023-01-25T15:46:30.460Z,90.81
2023-01-25T15:48:57.934Z,90.79
2023-01-25T15:51:26.341Z,90.48
2023-01-25T15:53:53.651Z,90.50
2023-01-25T15:56:56.105Z,90.64
2023-01-25T15:59:24.043Z,90.61
2023-01-25T16:01:51.505Z,90.78
2023-01-25T16:04:18.833Z,90.46
2023-01-25T16:06:51.166Z,90.32
2023-01-25T16:09:24.847Z,90.56
2023-01-25T16:11:55.854Z,90.47
2023-01-25T16:14:29.099Z,90.36
2023-01-25T16:17:01.471Z,90.26
2023-01-25T16:19:30.016Z,90.38
2023-01-25T16:21:58.085Z,90.31
2023-01-25T16:24:25.537Z,90.42
2023-01-25T16:26:58.707Z,90.34
2023-01-25T16:29:27.532Z,90.51
2023-01-25T16:31:55.724Z,90.32
2023-01-25T16:34:23.425Z,90.26
2023-01-25T16:36:51.010Z,90.20
2023-01-25T16:39:21.406Z,90.47
2023-01-25T16:41:49.479Z,90.49
2023-01-25T16:44:17.491Z,90.44
2023-01-25T16:46:45.403Z,90.52
2023-01-25T16:49:22.250Z,90.60
2023-01-25T16:51:50.479Z,90.40
2023-01-25T16:54:19.926Z,90.54
2023-01-25T16:56:49.115Z,90.75
2023-01-25T16:59:18.318Z,90.75
2023-01-25T17:01:46.568Z,90.76
2023-01-25T17:04:15.351Z,90.62
2023-01-25T17:06:49.391Z,90.45
2023-01-25T17:09:24.065Z,90.32
2023-01-25T17:11:55.576Z,90.44
2023-01-25T17:14:23.357Z,90.49
2023-01-25T17:16:53.711Z,90.50
2023-01-25T17:19:21.652Z,90.43
2023-01-25T17:21:49.312Z,90.48
2023-01-25T17:24:20.998Z,90.50
2023-01-25T17:26:48.805Z,90.47
2023-01-25T17:29:48.843Z,90.59
2023-01-25T17:32:16.189Z,90.48
2023-01-25T17:34:43.512Z,90.47
2023-01-25T17:37:10.849Z,90.31
2023-01-25T17:39:38.246Z,90.13
2023-01-25T17:42:06.948Z,90.26
2023-01-25T17:44:34.362Z,90.17
2023-01-25T17:47:01.838Z,90.20
2023-01-25T17:49:30.592Z,90.11
2023-01-25T17:51:57.917Z,90.25
2023-01-25T17:54:25.106Z,90.04
2023-01-25T17:56:54.065Z,90.01
2023-01-25T17:59:21.702Z,90.09
2023-01-25T18:01:49.850Z,90.40
2023-01-25T18:04:17.995Z,90.37
2023-01-25T18:06:45.298Z,90.25
2023-01-25T18:09:12.809Z,89.98
2023-01-25T18:11:41.003Z,90.03
2023-01-25T18:14:15.055Z,90.24
2023-01-25T18:16:43.377Z,90.19
2023-01-25T18:19:11.725Z,89.90
2023-01-25T18:21:40.676Z,89.86
2023-01-25T18:24:32.242Z,90.03
2023-01-25T18:27:22.222Z,90.09
2023-01-25T18:29:55.191Z,90.06
2023-01-25T18:32:22.854Z,89.83
2023-01-25T18:34:50.433Z,89.77
2023-01-25T18:37:20.620Z,89.83
2023-01-25T18:39:53.994Z,89.95
2023-01-25T18:42:24.673Z,90.04
2023-01-25T18:44:52.649Z,89.80
2023-01-25T18:47:22.841Z,89.76
2023-01-25T18:49:52.453Z,89.80
2023-01-25T18:52:22.239Z,89.91
2023-01-25T18:54:50.029Z,89.77
2023-01-25T18:57:18.198Z,89.94
2023-01-25T18:59:45.606Z,89.78
2023-01-25T19:02:15.921Z,89.71
2023-01-25T19:04:43.582Z,89.74
2023-01-25T19:07:11.571Z,89.78
2023-01-25T19:09:38.889Z,89.72
2023-01-25T19:12:06.966Z,89.56
2023-01-25T19:14:34.337Z,89.45
2023-01-25T19:17:02.083Z,89.53
2023-01-25T19:19:32.355Z,89.67
2023-01-25T19:22:01.168Z,89.71
2023-01-25T19:24:28.879Z,89.63
2023-01-25T19:26:56.484Z,89.61
2023-01-25T19:29:23.763Z,89.15
2023-01-25T19:31:51.369Z,89.09
2023-01-25T19:34:19.149Z,89.35
2023-01-25T19:36:50.001Z,89.23
2023-01-25T19:39:18.144Z,89.22
2023-01-25T19:41:46.438Z,89.52
2023-01-25T19:44:15.026Z,89.43
2023-01-25T19:46:42.860Z,89.50
2023-01-25T19:49:13.189Z,89.49
2023-01-25T19:51:45.677Z,89.43
2023-01-25T19:54:17.730Z,89.48
2023-01-25T19:56:48.569Z,89.50
2023-01-25T19:59:20.024Z,89.61
2023-01-25T20:01:48.470Z,89.71
2023-01-25T20:04:20.118Z,89.62
2023-01-25T20:06:49.432Z,89.74
2023-01-25T20:09:19.790Z,89.88
2023-01-25T20:11:47.558Z,89.90
2023-01-25T20:14:15.448Z,89.69
2023-01-25T20:16:43.090Z,89.80
2023-01-25T20:19:13.385Z,89.79
2023-01-25T20:21:41.108Z,89.81
2023-01-25T20:24:10.485Z,89.97
2023-01-25T20:26:42.498Z,89.84
2023-01-25T20:29:12.576Z,89.73
2023-01-25T20:31:47.445Z,89.70
2023-01-25T20:34:19.943Z,89.71
2023-01-25T20:36:49.109Z,89.83
2023-01-25T20:39:20.026Z,89.89
2023-01-25T20:41:48.186Z,89.99
2023-01-25T20:44:18.012Z,89.73
2023-01-25T20:46:46.041Z,89.87
2023-01-25T20:49:18.675Z,89.94
2023-01-25T20:51:47.452Z,89.92
2023-01-25T20:54:15.602Z,89.89
2023-01-25T20:56:43.247Z,89.77
2023-01-25T20:59:11.105Z,89.66
2023-01-25T21:01:38.552Z,89.71
2023-01-25T21:04:09.652Z,89.73
2023-01-25T21:06:38.658Z,89.61
2023-01-25T21:09:06.570Z,89.80
2023-01-25T21:11:34.683Z,89.71
2023-01-25T21:14:02.183Z,89.69
2023-01-25T21:16:30.167Z,89.83
2023-01-25T21:19:05.518Z,89.79
2023-01-25T21:21:34.675Z,89.89
2023-01-25T21:24:04.782Z,90.01
2023-01-25T21:26:35.724Z,90.05
2023-01-25T21:29:04.744Z,89.83
2023-01-25T21:31:39.221Z,89.90
2023-01-25T21:34:06.837Z,89.96
2023-01-25T21:36:34.203Z,89.96
2023-01-25T21:39:02.414Z,89.71
2023-01-25T21:41:33.629Z,89.83
2023-01-25T21:44:20.807Z,89.94
2023-01-25T21:47:16.309Z,89.96
2023-01-25T21:49:54.190Z,89.98
2023-01-25T21:52:21.681Z,89.97
2023-01-25T21:54:49.137Z,90.10
2023-01-25T21:57:16.459Z,89.93
2023-01-25T21:59:44.000Z,89.88
2023-01-25T22:02:14.817Z,89.83
2023-01-25T22:04:42.312Z,89.87
2023-01-25T22:07:11.740Z,89.87
2023-01-25T22:09:39.143Z,90.03
2023-01-25T22:12:06.544Z,90.22
2023-01-25T22:14:34.848Z,90.28
2023-01-25T22:17:03.184Z,90.16
2023-01-25T22:19:30.791Z,89.92
2023-01-25T22:21:58.150Z,90.05
2023-01-25T22:24:25.529Z,90.08
2023-01-25T22:27:21.669Z,90.14
2023-01-25T22:29:48.954Z,90.10
2023-01-25T22:32:16.333Z,90.13
2023-01-25T22:34:43.641Z,90.09
2023-01-25T22:37:11.987Z,90.15
2023-01-25T22:39:39.441Z,90.23
2023-01-25T22:42:06.723Z,90.26
2023-01-25T22:44:34.005Z,90.26
2023-01-25T22:47:01.314Z,90.36
2023-01-25T22:49:28.692Z,90.43
2023-01-25T22:51:56.027Z,90.36
2023-01-25T22:54:23.363Z,90.47
2023-01-25T22:56:50.668Z,90.43
2023-01-25T22:59:19.362Z,90.48
2023-01-25T23:01:46.752Z,90.57
2023-01-25T23:04:14.136Z,90.62
2023-01-25T23:06:41.548Z,90.59
2023-01-25T23:09:09.811Z,90.65
2023-01-25T23:11:38.895Z,90.71
2023-01-25T23:14:31.306Z,90.79
2023-01-25T23:17:17.130Z,90.86
2023-01-25T23:19:44.952Z,90.83
2023-01-25T23:22:12.439Z,90.71
2023-01-25T23:24:39.750Z,90.75
2023-01-25T23:27:07.234Z,90.78
2023-01-25T23:29:34.631Z,90.88
2023-01-25T23:32:02.061Z,90.93
2023-01-25T23:34:34.730Z,90.70
2023-01-25T23:37:02.132Z,90.84
2023-01-25T23:39:29.508Z,90.80
2023-01-25T23:41:56.880Z,90.85
2023-01-25T23:44:24.396Z,90.93
2023-01-25T23:46:51.798Z,90.89
2023-01-25T23:49:19.161Z,90.93
2023-01-25T23:51:46.501Z,90.82
2023-01-25T23:54:14.078Z,90.81
2023-01-25T23:56:41.458Z,90.91
2023-01-25T23:59:08.839Z,90.94
